Washita, Oklahoma
Current Conditions -  °F | °C
As of 4:58 AM on Friday 31 Oct 2014 (Local Time) from KFSI Reporting Station
Clear Clear  
Wind Chill: 52°   Ceiling: Unl
Heat Index: 52°   Visibility: 10mi
Dew Point: 36°   Wind: 15mph
Humidity: 54%   Direction: 10°N
Pressure: 30.29"   Gusts: NA
Location:  35.1°N, 98.34°W
Report Text: KFSI 310958Z AUTO 01013KT 10SM CLR 11/02 A3029 RMK AO2 SLP254 T01120023
Loading
Personal Weather Stations






























Interactive Weather Map New forecast layout! Learn more

10-Day Weather Forecast

Advertisements
Track Severe Weather on mobile